Time;durP1;ratioP1;P1;durP2;ratioP2;P2;SDS_P1;SDS_P2;PMS_P1;PMS_P2;Temp;Humidity;BMP_temperature;BMP_pressure;BME280_temperature;BME280_humidity;BME280_pressure;Samples;Min_cycle;Max_cycle;Signal;HPM_P1;HPM_P2
2022/03/07 00:02:04;;;;;;;;;61.00;48.33;;;;;8.49;41.32;101730.47;4987902;28;47416;-81
2022/03/07 00:04:29;;;;;;;;;58.33;46.67;;;;;8.33;41.28;101722.09;4990992;28;45497;-81
2022/03/07 00:06:54;;;;;;;;;59.33;48.00;;;;;8.38;41.05;101722.84;4992106;28;45542;-81
2022/03/07 00:09:20;;;;;;;;;61.67;48.67;;;;;8.42;41.24;101735.13;5006160;28;45513;-80
2022/03/07 00:11:45;;;;;;;;;62.67;48.67;;;;;8.31;41.69;101726.59;4990552;28;45521;-81
2022/03/07 00:14:12;;;;;;;;;62.67;50.67;;;;;8.39;41.27;101731.66;4992092;28;45586;-81
2022/03/07 00:16:37;;;;;;;;;57.33;46.33;;;;;8.30;41.68;101725.72;4992219;28;45505;-82
2022/03/07 00:19:04;;;;;;;;;62.00;49.33;;;;;8.23;41.72;101718.88;4990282;28;45359;-80
2022/03/07 00:21:29;;;;;;;;;57.67;46.00;;;;;8.26;41.66;101724.06;4992955;28;45354;-81
2022/03/07 00:23:55;;;;;;;;;61.67;46.33;;;;;8.25;41.87;101729.41;4986159;28;46019;-82
2022/03/07 00:26:20;;;;;;;;;52.33;45.33;;;;;8.20;42.01;101726.94;4988285;28;45436;-81
2022/03/07 00:28:47;;;;;;;;;59.67;47.00;;;;;8.18;42.26;101741.13;4988168;28;45931;-81
2022/03/07 00:31:13;;;;;;;;;61.33;49.00;;;;;8.15;41.80;101731.47;4987859;28;45671;-82
2022/03/07 00:33:39;;;;;;;;;58.33;46.33;;;;;8.14;42.15;101732.41;4985601;28;46234;-82
2022/03/07 00:36:05;;;;;;;;;62.00;48.00;;;;;8.09;41.97;101737.84;4989761;28;45382;-81
2022/03/07 00:38:31;;;;;;;;;58.33;47.67;;;;;8.08;42.61;101732.56;4987489;28;45502;-81
2022/03/07 00:40:57;;;;;;;;;60.33;48.67;;;;;8.00;42.71;101727.50;4985345;28;45347;-81
2022/03/07 00:43:22;;;;;;;;;53.67;41.33;;;;;7.98;42.40;101733.78;4987013;28;45580;-81
2022/03/07 00:45:48;;;;;;;;;56.67;46.00;;;;;7.99;42.63;101738.19;4992112;28;45511;-81
2022/03/07 00:48:15;;;;;;;;;58.00;46.00;;;;;8.02;42.80;101730.13;4990675;28;46091;-81
2022/03/07 00:50:42;;;;;;;;;58.67;45.33;;;;;8.03;42.53;101731.84;4992031;28;45492;-81
2022/03/07 00:53:15;;;;;;;;;55.67;46.00;;;;;7.95;42.57;101733.88;4988573;28;47387;-81
2022/03/07 00:55:40;;;;;;;;;61.00;50.00;;;;;7.97;42.31;101734.69;4986843;28;45618;-81
2022/03/07 00:58:06;;;;;;;;;59.25;46.75;;;;;7.95;42.41;101736.53;4991050;28;45528;-81
2022/03/07 01:00:33;;;;;;;;;56.33;45.00;;;;;7.94;42.54;101737.41;4989941;28;45490;-80
2022/03/07 01:02:59;;;;;;;;;55.33;44.00;;;;;7.93;42.69;101739.19;4984454;28;45505;-80
2022/03/07 01:05:25;;;;;;;;;57.75;46.75;;;;;7.89;42.73;101729.63;4986351;28;45537;-81
2022/03/07 01:07:50;;;;;;;;;56.75;46.00;;;;;7.88;42.92;101728.72;4990821;28;45603;-80
2022/03/07 01:10:15;;;;;;;;;58.33;48.33;;;;;7.82;43.03;101728.06;4987759;28;45552;-81
2022/03/07 01:12:41;;;;;;;;;52.33;43.00;;;;;7.84;42.69;101726.22;4986674;28;45439;-80
2022/03/07 01:15:09;;;;;;;;;53.75;44.00;;;;;7.76;42.99;101721.13;4986883;28;45466;-81
2022/03/07 01:17:36;;;;;;;;;60.33;49.00;;;;;7.76;42.69;101722.94;4990622;28;45272;-81
2022/03/07 01:20:05;;;;;;;;;56.25;45.75;;;;;7.77;43.21;101729.94;4985317;28;45521;-80
2022/03/07 01:22:30;;;;;;;;;60.33;49.67;;;;;7.77;43.11;101732.59;4988727;28;45592;-80
2022/03/07 01:24:55;;;;;;;;;56.00;45.00;;;;;7.70;42.99;101723.97;4987112;28;45498;-80
2022/03/07 01:27:20;;;;;;;;;53.33;44.67;;;;;7.71;43.39;101723.06;4987986;28;45377;-81
2022/03/07 01:29:46;;;;;;;;;60.25;46.75;;;;;7.70;43.04;101721.31;4982914;28;45362;-81
2022/03/07 01:32:11;;;;;;;;;58.00;47.67;;;;;7.67;43.19;101716.09;4986695;28;46132;-82
2022/03/07 01:34:36;;;;;;;;;54.00;42.25;;;;;7.66;43.10;101715.22;4988791;28;45797;-81
2022/03/07 01:37:02;;;;;;;;;52.50;44.00;;;;;7.64;43.11;101722.34;4988234;28;45618;-81
2022/03/07 01:39:28;;;;;;;;;47.50;39.25;;;;;7.55;43.42;101700.53;4985721;28;45230;-81
2022/03/07 01:41:53;;;;;;;;;52.25;43.50;;;;;7.60;43.48;101718.06;4982097;28;46233;-81
2022/03/07 01:44:24;;;;;;;;;54.75;44.00;;;;;7.52;43.31;101714.75;4981811;28;45466;-81
2022/03/07 01:46:50;;;;;;;;;57.00;42.75;;;;;7.57;42.97;101719.91;4984511;28;47311;-80
2022/03/07 01:49:16;;;;;;;;;53.00;43.50;;;;;7.59;43.54;101715.44;4986576;28;45463;-81
2022/03/07 01:51:42;;;;;;;;;54.50;44.50;;;;;7.52;43.08;101711.22;4990555;28;45571;-81
2022/03/07 01:54:14;;;;;;;;;49.50;41.00;;;;;7.52;43.49;101720.03;4984547;28;45382;-81
2022/03/07 01:56:42;;;;;;;;;48.50;39.75;;;;;7.43;43.38;101705.28;4988951;28;45456;-81
2022/03/07 01:59:11;;;;;;;;;48.50;39.75;;;;;7.49;43.33;101712.19;4989940;28;45458;-81
2022/03/07 02:01:37;;;;;;;;;53.75;44.75;;;;;7.43;43.88;101696.44;4987390;28;47387;-81
2022/03/07 02:04:02;;;;;;;;;52.00;41.75;;;;;7.39;43.63;101693.03;4979332;28;45512;-80
2022/03/07 02:06:27;;;;;;;;;54.75;41.75;;;;;7.45;43.55;101697.28;4984765;28;45436;-82
2022/03/07 02:08:55;;;;;;;;;44.75;35.50;;;;;7.43;43.75;101692.03;4990230;28;45569;-82
2022/03/07 02:11:21;;;;;;;;;49.50;42.00;;;;;7.44;43.80;101698.22;4984874;28;46775;-81
2022/03/07 02:13:46;;;;;;;;;51.25;41.00;;;;;7.43;43.87;101697.34;4985983;28;45576;-81
2022/03/07 02:16:14;;;;;;;;;49.00;41.00;;;;;7.41;43.45;101688.56;4985990;28;45613;-82
2022/03/07 02:18:40;;;;;;;;;45.50;37.25;;;;;7.31;44.00;101678.25;4983110;28;45497;-82
2022/03/07 02:21:14;;;;;;;;;51.00;41.25;;;;;7.36;43.48;101689.59;4984482;28;46217;-81
2022/03/07 02:23:39;;;;;;;;;49.50;41.25;;;;;7.37;43.73;101686.03;4990902;28;45448;-81
2022/03/07 02:26:13;;;;;;;;;54.75;43.75;;;;;7.31;44.03;101680.91;4986032;28;45485;-81
2022/03/07 02:28:41;;;;;;;;;52.75;41.75;;;;;7.31;43.92;101680.91;4985370;28;45571;-81
2022/03/07 02:31:07;;;;;;;;;54.25;44.50;;;;;7.16;43.87;101667.16;4987847;28;45440;-81
2022/03/07 02:33:33;;;;;;;;;54.00;42.25;;;;;7.24;43.62;101680.22;4985559;28;45600;-82
2022/03/07 02:35:59;;;;;;;;;51.50;43.50;;;;;7.19;44.16;101677.69;4986597;28;45521;-81
2022/03/07 02:38:24;;;;;;;;;52.25;41.25;;;;;7.22;44.06;101676.75;4988832;28;45398;-81
2022/03/07 02:40:50;;;;;;;;;49.00;38.00;;;;;7.17;43.54;101670.69;4987110;28;46177;-81
2022/03/07 02:43:16;;;;;;;;;51.75;42.00;;;;;7.12;44.39;101659.34;4986832;28;45425;-82
2022/03/07 02:45:43;;;;;;;;;50.75;39.25;;;;;7.10;44.01;101667.34;4984965;28;46231;-82
2022/03/07 02:48:08;;;;;;;;;53.00;43.75;;;;;7.11;44.31;101666.41;4993584;28;45324;-81
2022/03/07 02:50:34;;;;;;;;;58.00;43.25;;;;;7.01;44.07;101649.06;4989569;28;45553;-81
2022/03/07 02:52:59;;;;;;;;;48.25;40.00;;;;;6.98;43.99;101635.91;4987266;28;45494;-82
2022/03/07 02:55:24;;;;;;;;;46.25;38.25;;;;;7.08;44.16;101653.28;4986572;28;46489;-81
2022/03/07 02:57:50;;;;;;;;;44.00;38.25;;;;;7.06;44.10;101649.78;4990363;28;45332;-81
2022/03/07 03:00:16;;;;;;;;;37.50;35.50;;;;;7.09;44.38;101654.13;4990680;28;46235;-81
2022/03/07 03:02:41;;;;;;;;;53.25;42.75;;;;;7.02;44.07;101648.13;4984983;28;45484;-81
2022/03/07 03:05:07;;;;;;;;;50.00;38.00;;;;;7.05;44.10;101658.66;4988313;28;46420;-81
2022/03/07 03:07:33;;;;;;;;;55.00;42.25;;;;;7.03;44.33;101657.81;4986639;28;45517;-81
2022/03/07 03:10:00;;;;;;;;;44.00;38.25;;;;;6.99;44.45;101648.22;4992379;28;45544;-81
2022/03/07 03:12:26;;;;;;;;;49.00;40.00;;;;;6.99;44.24;101653.50;4989996;28;45568;-81
2022/03/07 03:14:52;;;;;;;;;49.25;40.50;;;;;6.95;44.37;101652.75;4987395;28;45474;-81
2022/03/07 03:17:18;;;;;;;;;41.25;38.25;;;;;6.87;44.36;101643.25;4998622;28;45453;-81
2022/03/07 03:19:43;;;;;;;;;44.50;38.00;;;;;6.88;44.18;101644.97;4995775;28;45540;-81
2022/03/07 03:22:08;;;;;;;;;45.75;39.75;;;;;6.89;44.37;101646.72;4993572;28;45759;-81
2022/03/07 03:24:34;;;;;;;;;50.75;40.50;;;;;6.90;44.47;101648.47;4993773;28;45540;-81
2022/03/07 03:26:59;;;;;;;;;48.00;40.75;;;;;6.79;44.99;101633.72;5001246;28;45498;-82
2022/03/07 03:29:25;;;;;;;;;43.00;38.25;;;;;6.89;44.60;101641.44;4998903;28;47047;-81
2022/03/07 03:31:50;;;;;;;;;41.75;35.75;;;;;6.80;45.02;101627.53;4995961;28;45457;-82
2022/03/07 03:34:16;;;;;;;;;51.25;38.25;;;;;6.87;44.56;101645.91;4983912;28;45443;-81
2022/03/07 03:36:41;;;;;;;;;44.50;36.25;;;;;6.82;44.52;101646.03;4992366;28;45256;-81
2022/03/07 03:39:07;;;;;;;;;32.75;32.75;;;;;6.81;44.20;101644.28;4992687;28;47068;-81
2022/03/07 03:41:32;;;;;;;;;44.50;38.25;;;;;6.78;44.30;101650.53;5004843;28;45456;-82
2022/03/07 03:43:57;;;;;;;;;40.25;33.25;;;;;6.70;44.96;101644.56;4994534;28;45479;-81
2022/03/07 03:46:23;;;;;;;;;53.75;39.75;;;;;6.75;44.75;101653.22;4994749;28;47291;-81
2022/03/07 03:48:48;;;;;;;;;48.25;41.00;;;;;6.75;44.84;101655.88;4990050;28;45511;-81
2022/03/07 03:51:13;;;;;;;;;45.75;38.75;;;;;6.67;45.10;101643.78;4996562;28;45455;-81
2022/03/07 03:53:39;;;;;;;;;42.00;37.00;;;;;6.74;45.03;101655.94;4991731;28;45427;-81
2022/03/07 03:56:05;;;;;;;;;49.00;39.75;;;;;6.68;44.80;101649.00;4990606;28;46141;-81
2022/03/07 03:58:30;;;;;;;;;52.50;40.50;;;;;6.68;44.75;101648.16;4999610;28;46396;-81
2022/03/07 04:00:55;;;;;;;;;49.00;38.50;;;;;6.59;44.78;101634.25;4992476;28;59536;-82
2022/03/07 04:03:21;;;;;;;;;46.50;40.75;;;;;6.68;44.49;101646.38;4992346;28;45476;-82
2022/03/07 04:05:46;;;;;;;;;51.00;39.00;;;;;6.72;44.43;101658.63;4996749;28;45460;-82
2022/03/07 04:08:11;;;;;;;;;46.50;38.50;;;;;6.59;44.56;101644.84;4992700;28;45543;-82
2022/03/07 04:10:37;;;;;;;;;49.50;38.50;;;;;6.60;44.46;101641.28;4992113;28;45460;-81
2022/03/07 04:13:02;;;;;;;;;46.00;39.75;;;;;6.61;44.79;101652.72;4990325;28;45442;-81
2022/03/07 04:15:27;;;;;;;;;39.00;36.00;;;;;6.60;44.85;101646.56;4996048;28;45347;-80
2022/03/07 04:17:54;;;;;;;;;43.50;38.50;;;;;6.61;44.96;101655.34;4986335;28;46117;-81
2022/03/07 04:20:19;;;;;;;;;43.25;37.25;;;;;6.50;45.06;101654.78;4996179;28;45517;-81
2022/03/07 04:22:45;;;;;;;;;42.00;38.25;;;;;6.46;44.90;101653.09;4994033;28;45506;-81
2022/03/07 04:25:11;;;;;;;;;45.25;38.50;;;;;6.46;45.37;101658.41;4999374;28;45624;-81
2022/03/07 04:27:36;;;;;;;;;41.50;37.25;;;;;6.33;44.92;101639.31;4995983;28;46107;-82
2022/03/07 04:30:04;;;;;;;;;42.50;37.00;;;;;6.38;45.35;101654.16;5000821;28;45424;-81
2022/03/07 04:32:30;;;;;;;;;43.00;37.25;;;;;6.45;45.20;101667.25;4999539;28;45330;-82
2022/03/07 04:34:56;;;;;;;;;41.25;36.25;;;;;6.40;45.44;101651.50;5000119;28;45367;-82
2022/03/07 04:37:21;;;;;;;;;41.25;36.25;;;;;6.43;45.13;101661.13;4998695;28;48083;-82
2022/03/07 04:39:46;;;;;;;;;40.00;36.25;;;;;6.40;44.92;101652.34;4995945;28;45413;-81
2022/03/07 04:42:12;;;;;;;;;35.00;33.25;;;;;6.43;45.49;101667.28;4999724;28;45381;-82
2022/03/07 04:44:37;;;;;;;;;46.50;35.75;;;;;6.44;45.19;101660.19;4999974;28;45222;-82
2022/03/07 04:47:03;;;;;;;;;45.00;39.50;;;;;6.42;45.11;101668.16;4999324;28;45959;-81
2022/03/07 04:49:28;;;;;;;;;44.25;36.00;;;;;6.42;45.12;101672.59;4999752;28;45455;-81
2022/03/07 04:51:53;;;;;;;;;45.00;37.50;;;;;6.36;45.57;101663.91;4995661;28;45396;-81
2022/03/07 04:54:19;;;;;;;;;48.50;38.75;;;;;6.29;45.46;101659.66;4994876;28;58957;-81
2022/03/07 04:56:47;;;;;;;;;50.25;37.50;;;;;6.26;45.79;101669.44;4994868;28;46023;-81
2022/03/07 04:59:13;;;;;;;;;42.50;35.75;;;;;6.30;45.77;101673.75;4994903;28;45547;-81
2022/03/07 05:01:39;;;;;;;;;45.75;39.25;;;;;6.25;45.41;101670.34;4994959;28;45473;-81
2022/03/07 05:04:05;;;;;;;;;46.25;38.75;;;;;6.14;45.57;101657.38;4991429;28;45354;-81
2022/03/07 05:06:30;;;;;;;;;45.50;37.25;;;;;6.19;45.90;101676.66;4995240;28;45489;-81
2022/03/07 05:08:55;;;;;;;;;35.00;34.50;;;;;6.22;45.65;101671.28;4995213;28;56247;-81
2022/03/07 05:11:21;;;;;;;;;39.75;36.50;;;;;6.18;45.82;101665.22;4995290;28;45455;-81
2022/03/07 05:13:46;;;;;;;;;42.25;37.00;;;;;6.18;45.25;101673.16;4994707;28;45561;-82
2022/03/07 05:16:11;;;;;;;;;54.50;41.00;;;;;6.16;45.83;101672.31;4994612;28;45952;-81
2022/03/07 05:18:37;;;;;;;;;42.75;38.50;;;;;6.19;45.73;101676.66;4995157;28;45331;-81
2022/03/07 05:21:02;;;;;;;;;52.25;41.25;;;;;6.14;45.98;101673.25;4995603;28;45410;-82
2022/03/07 05:23:27;;;;;;;;;46.75;39.00;;;;;6.16;45.78;101679.38;4995155;28;45228;-81
2022/03/07 05:25:53;;;;;;;;;52.00;40.00;;;;;6.14;45.51;101676.75;4994899;28;45509;-81
2022/03/07 05:28:18;;;;;;;;;46.00;39.00;;;;;6.04;46.16;101662.00;4995035;28;45706;-81
2022/03/07 05:30:43;;;;;;;;;48.00;39.25;;;;;6.08;46.05;101666.31;4994998;28;45454;-81
2022/03/07 05:33:09;;;;;;;;;44.25;38.50;;;;;6.03;45.80;101654.09;4995652;28;45437;-81
2022/03/07 05:35:34;;;;;;;;;45.00;37.75;;;;;6.12;45.80;101669.75;4994662;28;46056;-81
2022/03/07 05:37:59;;;;;;;;;43.00;37.25;;;;;6.07;46.20;101672.50;4994382;28;45425;-81
2022/03/07 05:40:25;;;;;;;;;44.50;38.25;;;;;6.04;45.77;101666.41;4994765;28;45414;-81
2022/03/07 05:42:51;;;;;;;;;43.75;39.25;;;;;6.11;45.94;101675.94;4994885;28;45495;-80
2022/03/07 05:45:16;;;;;;;;;42.25;36.00;;;;;6.12;46.12;101675.03;4993342;28;47085;-81
2022/03/07 05:47:42;;;;;;;;;48.25;39.50;;;;;6.08;46.19;101668.06;4991214;28;45339;-81
2022/03/07 05:50:09;;;;;;;;;44.00;38.75;;;;;6.05;45.58;101663.72;4994778;28;45572;-81
2022/03/07 05:52:35;;;;;;;;;48.75;41.00;;;;;6.08;46.15;101668.94;4993195;28;45404;-81
2022/03/07 05:55:01;;;;;;;;;46.75;36.00;;;;;6.00;45.76;101664.75;4994489;28;45507;-81
2022/03/07 05:57:27;;;;;;;;;46.75;38.50;;;;;6.06;45.84;101675.16;4994796;28;45592;-81
2022/03/07 05:59:52;;;;;;;;;38.50;36.00;;;;;5.95;45.80;101663.06;4992660;28;45486;-80
2022/03/07 06:02:17;;;;;;;;;42.50;37.75;;;;;6.02;46.05;101670.88;4994621;28;45481;-81
2022/03/07 06:04:44;;;;;;;;;49.00;39.75;;;;;6.07;45.69;101684.84;4994320;28;45512;-81
2022/03/07 06:07:09;;;;;;;;;47.00;38.00;;;;;6.02;45.97;101674.38;4993887;28;45382;-81
2022/03/07 06:09:34;;;;;;;;;43.50;38.25;;;;;6.01;46.20;101677.91;4992961;28;45516;-82
2022/03/07 06:12:00;;;;;;;;;45.25;38.25;;;;;6.03;45.74;101680.53;4998530;28;45378;-82
2022/03/07 06:14:25;;;;;;;;;43.75;37.00;;;;;6.03;46.03;101684.03;4997314;28;45445;-82
2022/03/07 06:16:50;;;;;;;;;43.00;36.25;;;;;5.93;45.63;101664.84;4997621;28;45505;-82
2022/03/07 06:19:16;;;;;;;;;41.50;38.25;;;;;6.03;45.82;101693.75;4997515;28;45280;-82
2022/03/07 06:21:41;;;;;;;;;42.25;36.75;;;;;5.97;46.21;101689.47;4998032;28;45362;-82
2022/03/07 06:24:08;;;;;;;;;45.25;38.75;;;;;5.95;46.07;101688.63;4998033;28;45472;-82
2022/03/07 06:26:35;;;;;;;;;59.33;44.33;;;;;5.80;46.24;101659.84;4997476;28;45343;-83
2022/03/07 06:29:02;;;;;;;;;55.00;42.00;;;;;5.92;46.34;101686.91;4976529;28;45434;-82
2022/03/07 06:31:27;;;;;;;;;44.00;38.50;;;;;5.97;46.13;101692.97;4988000;28;45491;-83
2022/03/07 06:33:52;;;;;;;;;47.50;40.50;;;;;5.84;46.07;101670.31;4995437;28;45437;-83
2022/03/07 06:36:17;;;;;;;;;45.00;40.00;;;;;5.93;45.79;101680.69;4996809;28;53141;-83
2022/03/07 06:38:43;;;;;;;;;46.25;38.00;;;;;5.92;46.19;101684.25;4997358;28;45392;-83
2022/03/07 06:41:08;;;;;;;;;47.75;40.25;;;;;5.89;46.25;101686.97;4996953;28;45437;-83
2022/03/07 06:43:34;;;;;;;;;49.75;40.25;;;;;5.88;46.07;101695.78;4995203;28;48174;-83
2022/03/07 06:45:59;;;;;;;;;41.00;38.00;;;;;5.87;45.89;101693.16;4997147;28;45393;-82
2022/03/07 06:48:25;;;;;;;;;48.50;40.25;;;;;5.81;46.32;101683.59;4997144;28;45417;-83
2022/03/07 06:50:50;;;;;;;;;45.00;38.25;;;;;5.80;46.22;101687.16;4993394;28;45466;-82
2022/03/07 06:53:16;;;;;;;;;53.75;41.75;;;;;5.81;46.06;101690.66;4996840;28;45445;-82
2022/03/07 06:55:41;;;;;;;;;47.33;41.67;;;;;5.90;46.21;101709.84;4997035;28;45369;-82
2022/03/07 06:58:07;;;;;;;;;49.50;39.00;;;;;5.82;46.28;101693.28;4996875;28;45469;-82
2022/03/07 07:00:32;;;;;;;;;42.67;38.67;;;;;5.82;46.08;101682.72;4997454;28;45354;-82
2022/03/07 07:02:57;;;;;;;;;44.25;38.75;;;;;5.80;46.16;101683.63;4996203;28;48379;-83
2022/03/07 07:05:23;;;;;;;;;46.75;40.50;;;;;5.79;46.29;101695.09;4995649;28;45557;-81
2022/03/07 07:07:49;;;;;;;;;53.33;42.67;;;;;5.83;46.01;101697.66;4997059;28;45797;-82
2022/03/07 07:10:18;;;;;;;;;46.50;39.00;;;;;5.84;45.93;101694.09;4996926;28;45410;-81
2022/03/07 07:12:48;;;;;;;;;51.00;40.00;;;;;5.84;46.21;101693.25;4981276;28;45532;-81
2022/03/07 07:15:14;;;;;;;;;46.50;39.50;;;;;5.87;45.93;101699.34;4997306;28;45446;-82
2022/03/07 07:17:40;;;;;;;;;41.25;38.00;;;;;5.85;45.98;101701.13;4997094;28;45386;-82
2022/03/07 07:20:07;;;;;;;;;46.50;40.00;;;;;5.82;46.13;101688.00;4996875;28;45318;-82
2022/03/07 07:22:32;;;;;;;;;48.75;40.00;;;;;5.79;46.40;101674.84;4996322;28;47134;-82
2022/03/07 07:24:58;;;;;;;;;40.25;37.25;;;;;5.87;46.19;101685.22;4996887;28;45433;-82
2022/03/07 07:27:23;;;;;;;;;43.50;38.75;;;;;5.80;45.73;101678.34;4977289;28;45378;-82
2022/03/07 07:29:49;;;;;;;;;42.50;36.75;;;;;5.84;45.96;101695.88;4997313;28;45525;-82
2022/03/07 07:32:15;;;;;;;;;47.25;38.75;;;;;5.85;46.13;101698.50;4996363;28;45478;-82
2022/03/07 07:34:40;;;;;;;;;49.00;42.75;;;;;5.77;45.68;101689.84;4996448;28;45509;-81
2022/03/07 07:37:06;;;;;;;;;45.50;38.25;;;;;5.83;45.63;101692.38;4996967;28;45768;-82
2022/03/07 07:39:31;;;;;;;;;48.00;40.00;;;;;5.78;45.63;101696.88;4996325;28;45362;-81
2022/03/07 07:41:56;;;;;;;;;45.00;40.00;;;;;5.65;45.52;101676.91;4995345;28;47115;-81
2022/03/07 07:44:22;;;;;;;;;48.67;41.67;;;;;5.76;45.33;101701.31;4996164;28;45406;-82
2022/03/07 07:46:47;;;;;;;;;48.67;40.00;;;;;5.66;45.86;101697.16;4996548;28;49646;-82
2022/03/07 07:49:14;;;;;;;;;47.00;39.50;;;;;5.65;45.94;101691.00;4996768;28;45616;-82
2022/03/07 07:51:40;;;;;;;;;42.75;35.50;;;;;5.73;45.93;101707.53;4996480;28;47040;-81
2022/03/07 07:54:05;;;;;;;;;54.00;44.67;;;;;5.65;45.73;101704.19;4996875;28;45343;-82
2022/03/07 07:56:31;;;;;;;;;52.75;41.00;;;;;5.71;46.00;101708.47;4995972;28;45433;-82
2022/03/07 07:58:56;;;;;;;;;48.00;40.67;;;;;5.60;45.59;101691.97;4995091;28;45501;-82
2022/03/07 08:01:22;;;;;;;;;49.00;42.33;;;;;5.62;45.81;101693.69;4996142;28;45516;-81
2022/03/07 08:03:47;;;;;;;;;48.75;40.25;;;;;5.66;46.15;101702.44;4996086;28;45387;-81
2022/03/07 08:06:12;;;;;;;;;46.75;36.50;;;;;5.62;46.04;101698.97;4996612;28;45394;-82
2022/03/07 08:08:38;;;;;;;;;47.25;40.25;;;;;5.65;45.48;101690.09;4996060;28;45428;-81
2022/03/07 08:11:03;;;;;;;;;43.25;39.50;;;;;5.70;45.57;101690.88;4994893;28;45489;-82
2022/03/07 08:13:29;;;;;;;;;49.75;41.75;;;;;5.71;45.87;101697.91;4995844;28;49094;-81
2022/03/07 08:15:54;;;;;;;;;46.50;40.25;;;;;5.55;45.57;101699.97;4994619;28;45546;-81
2022/03/07 08:18:19;;;;;;;;;39.75;34.00;;;;;5.59;45.91;101700.81;4996241;28;45625;-82
2022/03/07 08:20:45;;;;;;;;;56.67;42.33;;;;;5.58;46.25;101706.97;4995132;28;45446;-82
2022/03/07 08:23:10;;;;;;;;;51.25;43.25;;;;;5.57;46.17;101684.97;4995524;28;45429;-82
2022/03/07 08:25:36;;;;;;;;;53.00;40.25;;;;;5.47;46.25;101683.44;4995422;28;46007;-82
2022/03/07 08:28:02;;;;;;;;;47.50;40.25;;;;;5.47;46.45;101686.06;4996084;28;45509;-81
2022/03/07 08:30:28;;;;;;;;;51.25;42.50;;;;;5.37;46.37;101681.88;4995835;28;45928;-82
2022/03/07 08:32:55;;;;;;;;;46.75;38.50;;;;;5.44;46.36;101702.84;4993482;28;45539;-81
2022/03/07 08:35:21;;;;;;;;;50.00;41.00;;;;;5.43;46.54;101687.88;4996064;28;45299;-81
2022/03/07 08:37:48;;;;;;;;;43.50;37.75;;;;;5.52;46.30;101697.41;4995557;28;45417;-82
2022/03/07 08:40:16;;;;;;;;;42.75;36.50;;;;;5.65;46.14;101685.72;4995201;28;46347;-81
2022/03/07 08:42:43;;;;;;;;;48.50;39.75;;;;;5.61;45.72;101683.16;4992988;28;45504;-82
2022/03/07 08:45:09;;;;;;;;;48.00;39.25;;;;;5.61;45.76;101676.09;4996311;28;45618;-82
2022/03/07 08:47:36;;;;;;;;;55.00;41.25;;;;;5.60;46.27;101684.91;4993936;28;45580;-82
2022/03/07 08:50:04;;;;;;;;;41.25;38.75;;;;;5.67;46.00;101683.03;4995062;28;45524;-81
2022/03/07 08:52:30;;;;;;;;;45.25;38.75;;;;;5.58;45.55;101672.63;4994175;28;45300;-81
2022/03/07 08:54:55;;;;;;;;;50.25;41.00;;;;;5.62;45.67;101684.88;4994283;28;45399;-81
2022/03/07 08:57:20;;;;;;;;;43.00;36.75;;;;;5.68;45.64;101684.78;4995011;28;45485;-81
2022/03/07 08:59:46;;;;;;;;;44.75;39.50;;;;;5.58;44.98;101654.16;4994883;28;45976;-81
2022/03/07 09:02:12;;;;;;;;;53.00;43.75;;;;;5.67;45.04;101675.09;4993268;28;46148;-81
2022/03/07 09:04:40;;;;;;;;;47.50;38.50;;;;;5.61;45.23;101667.31;4994619;28;45546;-81
2022/03/07 09:07:06;;;;;;;;;54.25;40.00;;;;;5.70;45.65;101675.91;4992146;28;45434;-81
2022/03/07 09:09:31;;;;;;;;;47.75;39.50;;;;;5.64;44.88;101660.19;5010520;28;47399;-81
2022/03/07 09:11:56;;;;;;;;;50.00;39.00;;;;;5.63;44.89;101657.56;4995858;28;45429;-81
2022/03/07 09:14:22;;;;;;;;;50.75;41.75;;;;;5.19;45.52;101570.44;4994784;28;45374;-81
2022/03/07 09:16:47;;;;;;;;;50.50;41.00;;;;;5.72;45.45;101645.06;4995248;28;45332;-85
2022/03/07 09:19:13;;;;;;;;;45.50;38.25;;;;;5.70;45.11;101646.88;4995153;28;46823;-83
2022/03/07 09:21:38;;;;;;;;;47.25;40.00;;;;;5.91;44.78;101673.72;4994835;28;45201;-84
2022/03/07 09:24:04;;;;;;;;;47.00;39.00;;;;;5.96;44.79;101683.31;4995073;28;45443;-93
2022/03/07 09:26:30;;;;;;;;;46.50;39.00;;;;;5.95;44.55;101649.84;4994571;28;45434;-83
2022/03/07 09:28:55;;;;;;;;;54.00;40.00;;;;;6.14;44.03;101667.97;4993970;28;45670;-81
2022/03/07 09:31:21;;;;;;;;;44.25;39.50;;;;;6.23;44.52;101672.16;4994315;28;45460;-79
2022/03/07 09:33:46;;;;;;;;;41.75;36.25;;;;;6.29;44.31;101667.59;4994196;28;46423;-79
2022/03/07 09:36:12;;;;;;;;;50.75;38.50;;;;;6.30;43.87;101671.09;4993479;28;45569;-80
2022/03/07 09:38:38;;;;;;;;;53.75;40.50;;;;;6.31;43.74;101670.22;4994402;28;46164;-79
2022/03/07 09:41:05;;;;;;;;;42.75;36.00;;;;;6.16;43.01;101645.88;4994130;28;45524;-85
2022/03/07 09:43:30;;;;;;;;;45.00;36.75;;;;;6.37;44.04;101664.75;4991536;28;45452;-78
2022/03/07 09:45:56;;;;;;;;;42.50;36.25;;;;;6.58;43.50;101668.66;4990419;28;45446;-79
2022/03/07 09:48:23;;;;;;;;;41.75;37.25;;;;;6.50;43.29;101631.84;4993879;28;45549;-79
2022/03/07 09:50:48;;;;;;;;;38.75;35.75;;;;;6.77;43.00;101653.22;4991987;28;45585;-79
2022/03/07 09:53:13;;;;;;;;;40.25;35.25;;;;;6.80;42.24;101655.78;4993008;28;45471;-78
2022/03/07 09:55:39;;;;;;;;;38.50;35.25;;;;;6.92;42.57;101654.59;4992483;28;45584;-79
2022/03/07 09:58:06;;;;;;;;;43.00;36.25;;;;;7.00;41.91;101661.44;4992443;28;48360;-78
2022/03/07 10:00:33;;;;;;;;;39.50;37.50;;;;;7.02;41.38;101650.78;4994893;28;45327;-79
2022/03/07 10:03:06;;;;;;;;;36.00;32.50;;;;;7.09;41.55;101651.50;4994274;28;45389;-79
2022/03/07 10:05:35;;;;;;;;;39.25;32.50;;;;;7.20;41.42;101654.72;4992889;28;45272;-79
2022/03/07 10:08:00;;;;;;;;;52.75;38.75;;;;;7.24;41.02;101654.59;4992061;28;47265;-78
2022/03/07 10:10:32;;;;;;;;;38.25;34.75;;;;;7.30;40.94;101656.19;4994502;28;45438;-78
2022/03/07 10:13:04;;;;;;;;;36.75;34.00;;;;;7.37;40.35;101643.66;4994723;28;45313;-79
2022/03/07 10:15:30;;;;;;;;;47.25;38.25;;;;;7.53;40.58;101652.91;4994747;28;45669;-78
2022/03/07 10:17:55;;;;;;;;;36.25;34.75;;;;;7.60;40.38;101638.59;4994470;28;46073;-78
2022/03/07 10:20:24;;;;;;;;;43.25;35.00;;;;;7.71;39.42;101643.53;4992377;28;45604;-78
2022/03/07 10:22:54;;;;;;;;;37.75;35.25;;;;;7.85;39.68;101636.06;4994196;28;45508;-78
2022/03/07 10:25:28;;;;;;;;;38.50;34.00;;;;;7.93;39.85;101630.50;4994062;28;45512;-78
2022/03/07 10:27:56;;;;;;;;;40.75;37.00;;;;;8.03;38.88;101634.63;4993328;28;45502;-78
2022/03/07 10:30:23;;;;;;;;;33.25;31.00;;;;;8.06;38.83;101639.84;4993823;28;45590;-78
2022/03/07 10:32:55;;;;;;;;;36.50;32.50;;;;;8.14;38.35;101641.38;4993827;28;45492;-79
2022/03/07 10:35:29;;;;;;;;;38.50;36.50;;;;;8.21;38.29;101633.19;4993772;28;45433;-79
2022/03/07 10:37:57;;;;;;;;;34.00;33.00;;;;;8.27;38.02;101626.78;4993071;28;45429;-78
2022/03/07 10:40:23;;;;;;;;;36.50;29.75;;;;;8.32;38.16;101617.78;4992856;28;46420;-79
2022/03/07 10:42:50;;;;;;;;;34.50;29.00;;;;;8.37;37.92;101603.50;4993602;28;49518;-78
2022/03/07 10:45:16;;;;;;;;;36.25;33.75;;;;;8.59;37.76;101616.97;4992099;28;45366;-79
2022/03/07 10:47:42;;;;;;;;;45.75;37.50;;;;;8.75;37.27;101620.81;4995624;28;48538;-78
2022/03/07 10:50:09;;;;;;;;;32.00;30.50;;;;;8.83;37.32;101620.56;4993234;28;45477;-78
2022/03/07 10:52:41;;;;;;;;;38.25;31.75;;;;;8.84;36.33;101607.22;4991679;28;45520;-79
2022/03/07 10:55:08;;;;;;;;;35.25;32.75;;;;;8.92;35.67;101618.47;4992324;28;45434;-78
2022/03/07 10:57:39;;;;;;;;;30.75;29.50;;;;;8.88;35.96;101606.19;4995444;28;45492;-80
2022/03/07 11:00:09;;;;;;;;;34.00;31.25;;;;;9.05;36.11;101610.91;4996357;28;45517;-79
2022/03/07 11:02:42;;;;;;;;;30.50;28.25;;;;;9.11;35.60;101597.41;4995568;28;45533;-79
2022/03/07 11:05:09;;;;;;;;;35.25;33.50;;;;;9.31;34.98;101607.31;4993952;28;45380;-79
2022/03/07 11:07:38;;;;;;;;;39.75;33.00;;;;;9.44;35.33;101614.81;4996810;28;46656;-78
2022/03/07 11:10:08;;;;;;;;;39.50;35.50;;;;;9.47;35.03;101594.31;4997205;28;49580;-80
2022/03/07 11:12:34;;;;;;;;;34.50;31.00;;;;;9.56;34.16;101604.59;4997078;28;45501;-78